Orto / Ocaso: 05:34 / 19:07 UTC (Datos para LEAX 15-08-2018)

[fuente: ADDS]

METAR:


LEMG 150300Z 11004KT 080V150 9999 BKN008 24/22 Q1016 TEMPO SCT008 =
LEGR 150300Z AUTO VRB01KT 9999 NCD 19/11 Q1018 =
LEZL 150300Z 19005KT 150V240 CAVOK 19/17 Q1015 NOSIG =
LEAM 150300Z VRB01KT CAVOK 26/21 Q1015 =
LEBA 150300Z AUTO VRB02KT 9999 ////// 19/13 Q1015 =
LEJR 150300Z AUTO VRB01KT 9999 NCD 16/15 Q1016 =
GEML 150300Z AUTO 25004KT 9999 NCD 23/10 Q1016 =
LXGB 150250Z AUTO 23007KT 9999 // NCD 21/15 Q1016 =

TAFOR:


TAF LEMG 142300Z 1500/1524 12007KT 9999 SCT018 TX29/1513Z TN22/1503Z TEMPO 1500/1503 VRB02KT TEMPO 1501/1510 3000 BR BKN006 PROB30 TEMPO 1502/1507 1000 BCFG BKN003 BECMG 1519/1522 VRB02KT =
TAF LEGR 150200Z 1503/1603 VRB02KT CAVOK TX35/1515Z TN17/1506Z BECMG 1511/1513 21010KT TEMPO 1514/1519 FEW045CB SCT080 BECMG 1518/1521 VRB03KT =
TAF LEZL 150200Z 1503/1603 22006KT CAVOK TX33/1515Z TN18/1505Z PROB40 TEMPO 1504/1509 3000 BR BKN005 PROB30 TEMPO 1601/1603 4000 BR BKN008 =
TAF LEAM 150200Z 1503/1603 35005KT 9999 FEW020 TX31/1513Z TN23/1506Z BECMG 1507/1510 13011KT BECMG 1521/1524 01004KT =
TAF LEBA 150200Z 1503/1512 26004KT CAVOK =
TAF LEJR 142300Z 1500/1524 17003KT 9999 FEW020 TX31/1514Z TN17/1504Z TEMPO 1502/1509 3000 BR BKN005 PROB40 TEMPO 1502/1508 0500 FG VV001 BECMG 1509/1512 23010KT BECMG 1519/1522 17003KT =
TAF GEML 150200Z 1503/1603 05005KT CAVOK TX29/1514Z TN21/1505Z PROB40 TEMPO 1519/1603 BKN010 =
TAF LXGB 091911Z 0918/1922 20013KT 9999 FEW020 520001 PROB40 TEMPO 0918/0919 19015G25KT 530001 BECMG 0919/0921 25005KT 50//// =

Recuerde que, aunque regularmente actualizada, la información meteorológica aquí presentada no debe ser utilizada para la planificación de vuelos. Si lo desea, puede consultar la información meteorológica adecuada, tanto de aeródromos como en ruta, por las vías oficialmente establecidas en la legislación -> AQUí